Time;durP1;ratioP1;P1;durP2;ratioP2;P2;SDS_P1;SDS_P2;PMS_P1;PMS_P2;Temp;Humidity;BMP_temperature;BMP_pressure;BME280_temperature;BME280_humidity;BME280_pressure;Samples;Min_cycle;Max_cycle;Signal;HPM_P1;HPM_P2
2022/11/22 00:00:19;;;;;;;18.70;10.43;;;4.60;99.90;;;;;;5040186;28;20307;-81
2022/11/22 00:02:45;;;;;;;22.90;11.73;;;2.90;99.90;;;;;;5063136;28;20052;-80
2022/11/22 00:05:12;;;;;;;21.27;10.20;;;3.00;99.90;;;;;;5054211;28;20024;-80
2022/11/22 00:07:38;;;;;;;19.23;9.73;;;3.40;99.90;;;;;;5060931;28;20107;-80
2022/11/22 00:10:08;;;;;;;20.45;11.10;;;3.90;99.90;;;;;;5085283;28;20031;-80
2022/11/22 00:12:34;;;;;;;23.52;12.05;;;2.90;99.90;;;;;;5059479;28;20037;-80
2022/11/22 00:15:00;;;;;;;24.50;12.82;;;4.40;99.90;;;;;;5059410;28;20067;-80
2022/11/22 00:17:25;;;;;;;20.67;12.35;;;2.90;99.90;;;;;;5079612;28;20029;-80
2022/11/22 00:19:51;;;;;;;20.27;10.02;;;4.10;99.90;;;;;;5043684;28;20028;-80
2022/11/22 00:22:17;;;;;;;21.90;10.85;;;4.80;99.90;;;;;;5061748;28;20028;-80
2022/11/22 00:24:45;;;;;;;27.13;14.63;;;2.90;99.90;;;;;;5067780;28;20033;-80
2022/11/22 00:27:11;;;;;;;17.42;10.68;;;5.50;99.90;;;;;;5048773;28;20098;-80
2022/11/22 00:29:36;;;;;;;23.50;12.57;;;3.90;99.90;;;;;;5069489;28;20040;-81
2022/11/22 00:32:09;;;;;;;19.92;10.98;;;5.20;99.90;;;;;;5042427;28;20096;-80
2022/11/22 00:34:40;;;;;;;20.73;11.82;;;5.50;99.90;;;;;;5050870;28;20215;-81
2022/11/22 00:37:05;;;;;;;23.45;12.93;;;3.00;99.90;;;;;;5069651;28;20031;-81
2022/11/22 00:39:31;;;;;;;30.85;15.18;;;4.10;99.90;;;;;;5069770;28;20585;-81
2022/11/22 00:41:57;;;;;;;22.60;13.82;;;5.70;99.90;;;;;;5058818;28;20032;-81
2022/11/22 00:44:22;;;;;;;23.17;13.48;;;3.30;99.90;;;;;;5070054;28;20058;-81
2022/11/22 00:46:48;;;;;;;23.10;12.65;;;3.50;99.90;;;;;;5072235;28;20082;-82
2022/11/22 00:49:14;;;;;;;16.30;8.95;;;2.90;99.90;;;;;;5029985;28;20025;-82
2022/11/22 00:51:39;;;;;;;14.48;8.23;;;5.00;99.90;;;;;;5056245;28;20028;-82
2022/11/22 00:54:06;;;;;;;19.05;9.55;;;4.20;99.90;;;;;;5053797;28;20063;-81
2022/11/22 00:56:32;;;;;;;22.15;11.70;;;2.80;99.90;;;;;;5067938;28;20040;-81
2022/11/22 00:58:57;;;;;;;23.55;11.65;;;5.00;99.90;;;;;;5046300;28;20227;-82
2022/11/22 01:01:23;;;;;;;27.52;15.35;;;3.00;99.90;;;;;;5074738;28;20100;-82
2022/11/22 01:03:49;;;;;;;13.35;8.68;;;3.20;99.90;;;;;;5065322;28;20053;-80
2022/11/22 01:06:14;;;;;;;15.55;8.82;;;4.00;99.90;;;;;;5066106;28;20037;-80
2022/11/22 01:08:40;;;;;;;23.77;12.63;;;3.70;99.90;;;;;;5046410;28;20040;-81
2022/11/22 01:11:06;;;;;;;25.13;13.15;;;5.50;99.90;;;;;;5055477;28;20032;-79
2022/11/22 01:13:31;;;;;;;22.10;11.70;;;4.60;99.90;;;;;;5065562;28;20029;-81
2022/11/22 01:15:59;;;;;;;23.10;12.65;;;5.70;99.90;;;;;;5056957;28;20032;-79
2022/11/22 01:18:25;;;;;;;24.45;11.52;;;2.90;99.90;;;;;;5031414;28;20190;-80
2022/11/22 01:20:50;;;;;;;28.05;13.32;;;3.00;99.90;;;;;;5060639;28;20066;-81
2022/11/22 01:23:16;;;;;;;26.75;13.93;;;2.80;99.90;;;;;;5065446;28;20066;-81
2022/11/22 01:25:45;;;;;;;25.77;13.85;;;1.20;99.90;;;;;;5054290;28;20094;-82
2022/11/22 01:28:11;;;;;;;21.42;9.90;;;3.90;99.90;;;;;;5075958;28;20088;-80
2022/11/22 01:30:37;;;;;;;25.45;12.93;;;4.50;99.90;;;;;;5062811;28;20024;-81
2022/11/22 01:33:03;;;;;;;25.73;11.68;;;3.20;99.90;;;;;;5064925;28;20044;-81
2022/11/22 01:35:28;;;;;;;30.33;15.80;;;5.80;99.90;;;;;;5049996;28;20323;-81
2022/11/22 01:37:54;;;;;;;26.20;13.07;;;3.00;99.90;;;;;;5067114;28;20033;-81
2022/11/22 01:40:20;;;;;;;26.40;12.88;;;;;;;;;;5034542;28;20196;-81
2022/11/22 01:42:52;;;;;;;34.22;15.80;;;3.10;99.90;;;;;;5044441;28;20082;-81
2022/11/22 01:45:33;;;;;;;28.83;15.13;;;3.30;99.90;;;;;;5072970;28;20043;-81
2022/11/22 01:48:06;;;;;;;27.88;14.30;;;3.70;99.90;;;;;;5049431;28;20377;-81
2022/11/22 01:50:35;;;;;;;24.08;11.82;;;3.30;99.90;;;;;;5062299;28;20043;-81
2022/11/22 01:53:05;;;;;;;26.33;13.50;;;3.30;99.90;;;;;;5068682;28;20080;-78
2022/11/22 01:55:31;;;;;;;31.45;15.50;;;3.40;99.90;;;;;;5055520;28;20223;-81
2022/11/22 01:57:57;;;;;;;27.98;13.40;;;4.30;99.90;;;;;;5042179;28;20082;-81
2022/11/22 02:00:23;;;;;;;27.08;13.77;;;3.70;99.90;;;;;;5057928;28;20464;-81
2022/11/22 02:02:56;;;;;;;25.23;13.00;;;3.40;99.90;;;;;;5027552;28;20075;-81
2022/11/22 02:05:27;;;;;;;33.88;16.98;;;3.20;99.90;;;;;;5059101;28;20043;-81
2022/11/22 02:08:24;;;;;;;33.47;16.92;;;3.30;99.90;;;;;;5086151;28;20115;-81
2022/11/22 02:10:52;;;;;;;32.10;15.10;;;0.70;99.90;;;;;;5066141;28;20214;-81
2022/11/22 02:13:21;;;;;;;27.95;13.43;;;3.90;99.90;;;;;;5063245;28;20040;-81
2022/11/22 02:15:46;;;;;;;27.60;13.35;;;3.40;99.90;;;;;;5080733;28;20075;-80
2022/11/22 02:18:13;;;;;;;25.70;14.07;;;5.50;99.90;;;;;;5076723;28;20037;-80
2022/11/22 02:20:38;;;;;;;23.60;11.68;;;6.10;99.90;;;;;;5056150;28;20033;-81
2022/11/22 02:23:28;;;;;;;32.67;17.02;;;3.30;99.90;;;;;;5054001;28;20068;-81
2022/11/22 02:25:55;;;;;;;30.50;14.95;;;4.80;99.90;;;;;;5072427;28;20345;-81
2022/11/22 02:28:20;;;;;;;28.45;15.10;;;3.40;99.90;;;;;;5062068;28;20239;-81
2022/11/22 02:30:46;;;;;;;29.70;14.82;;;4.50;99.90;;;;;;5085769;28;20027;-81
2022/11/22 02:33:12;;;;;;;24.40;12.35;;;5.90;99.90;;;;;;5069778;28;20039;-80
2022/11/22 02:35:40;;;;;;;18.17;9.23;;;5.10;99.90;;;;;;5057886;28;20033;-79
2022/11/22 02:38:16;;;;;;;22.08;10.15;;;3.70;99.90;;;;;;5073878;28;20040;-79
2022/11/22 02:41:08;;;;;;;24.67;12.75;;;3.40;99.90;;;;;;5095538;28;20078;-80
2022/11/22 02:43:37;;;;;;;24.17;12.25;;;3.30;99.90;;;;;;5057000;28;20323;-81
2022/11/22 02:46:09;;;;;;;20.70;10.98;;;3.30;99.90;;;;;;5082036;28;20051;-80
2022/11/22 02:48:42;;;;;;;28.27;15.82;;;3.50;99.90;;;;;;5079636;28;20044;-80
2022/11/22 02:51:09;;;;;;;23.80;12.90;;;3.70;99.90;;;;;;5078736;28;20040;-80
2022/11/22 02:53:35;;;;;;;33.10;17.73;;;4.80;99.90;;;;;;5065517;28;20287;-79
2022/11/22 02:56:01;;;;;;;23.38;12.02;;;3.90;99.90;;;;;;5072245;28;20366;-79
2022/11/22 02:58:27;;;;;;;24.83;13.35;;;3.50;99.90;;;;;;5045851;28;20037;-80
2022/11/22 03:00:52;;;;;;;25.65;13.95;;;3.50;99.90;;;;;;5055899;28;20063;-81
2022/11/22 03:03:18;;;;;;;19.92;11.80;;;4.60;99.90;;;;;;5056842;28;20040;-81
2022/11/22 03:05:44;;;;;;;21.73;11.63;;;4.20;99.90;;;;;;5077512;28;20082;-81
2022/11/22 03:08:10;;;;;;;16.83;8.75;;;5.00;99.90;;;;;;5047475;28;20065;-80
2022/11/22 03:10:36;;;;;;;15.25;10.10;;;4.60;99.90;;;;;;5064303;28;20385;-81
2022/11/22 03:13:01;;;;;;;21.77;11.48;;;4.70;99.90;;;;;;5078472;28;20064;-80
2022/11/22 03:15:27;;;;;;;29.25;14.77;;;3.40;99.90;;;;;;5038770;28;20044;-80
2022/11/22 03:18:01;;;;;;;19.35;10.18;;;3.40;99.90;;;;;;5045815;28;20539;-81
2022/11/22 03:20:27;;;;;;;16.38;9.68;;;5.60;99.90;;;;;;5074083;28;20258;-80
2022/11/22 03:22:53;;;;;;;24.17;11.15;;;5.10;99.90;;;;;;5095637;28;20032;-81
2022/11/22 03:25:20;;;;;;;26.60;14.07;;;3.60;99.90;;;;;;5058897;28;20100;-78
2022/11/22 03:27:45;;;;;;;14.27;8.25;;;3.50;99.90;;;;;;5057877;28;20031;-79
2022/11/22 03:30:12;;;;;;;20.80;10.70;;;3.50;99.90;;;;;;5048783;28;20029;-78
2022/11/22 03:32:37;;;;;;;34.50;18.73;;;3.50;99.90;;;;;;5054260;28;20033;-80
2022/11/22 03:35:03;;;;;;;16.13;9.60;;;6.20;99.90;;;;;;5071451;28;20050;-81
2022/11/22 03:37:29;;;;;;;26.33;14.70;;;3.50;99.90;;;;;;5038569;28;20036;-79
2022/11/22 03:39:55;;;;;;;18.58;10.02;;;3.50;99.90;;;;;;5046563;28;20250;-80
2022/11/22 03:42:21;;;;;;;28.67;15.48;;;3.80;99.90;;;;;;5039969;28;20234;-80
2022/11/22 03:45:34;;;;;;;16.83;9.63;;;3.40;99.90;;;;;;5064520;28;20074;-79
2022/11/22 03:48:01;;;;;;;17.10;8.82;;;4.40;99.90;;;;;;5052131;28;20218;-79
2022/11/22 03:50:26;;;;;;;18.33;11.05;;;6.60;99.90;;;;;;5047716;28;20212;-80
2022/11/22 03:52:52;;;;;;;27.58;14.93;;;1.90;99.90;;;;;;5029144;28;20051;-79
2022/11/22 03:55:18;;;;;;;19.75;10.02;;;4.10;99.90;;;;;;5042721;28;20072;-80
2022/11/22 03:57:43;;;;;;;28.05;12.90;;;3.50;99.90;;;;;;5045365;28;20044;-79
2022/11/22 04:00:11;;;;;;;22.45;10.55;;;3.50;99.90;;;;;;5045359;28;20035;-79
2022/11/22 04:02:36;;;;;;;22.80;12.23;;;3.50;99.90;;;;;;5045171;28;20264;-79
2022/11/22 04:05:02;;;;;;;27.38;14.10;;;3.80;99.90;;;;;;5090340;28;20037;-78
2022/11/22 04:07:28;;;;;;;20.25;10.18;;;3.90;99.90;;;;;;5057633;28;20496;-78
2022/11/22 04:09:54;;;;;;;23.85;12.32;;;1.60;99.90;;;;;;5045642;28;20341;-78
2022/11/22 04:12:20;;;;;;;22.00;8.48;;;3.60;99.90;;;;;;5043266;28;20041;-80
2022/11/22 04:17:44;;;;;;;22.15;11.65;;;6.20;99.90;;;;;;5062774;28;20346;-79
2022/11/22 04:23:00;;;;;;;27.38;14.25;;;4.10;99.90;;;;;;5095253;28;20037;-78
2022/11/22 04:25:28;;;;;;;14.13;8.52;;;6.90;99.90;;;;;;5063459;28;20039;-81
2022/11/22 04:27:54;;;;;;;23.23;12.15;;;4.10;99.90;;;;;;5040558;28;20210;-78
2022/11/22 04:30:20;;;;;;;25.17;12.10;;;6.80;99.90;;;;;;5032417;28;20029;-79
2022/11/22 04:32:46;;;;;;;21.73;11.75;;;5.30;99.90;;;;;;5058110;28;20029;-79
2022/11/22 04:35:14;;;;;;;23.52;13.25;;;4.10;99.90;;;;;;5049569;28;20025;-78
2022/11/22 04:37:40;;;;;;;18.13;10.50;;;2.30;99.90;;;;;;5068256;28;20063;-80
2022/11/22 04:40:07;;;;;;;23.63;11.82;;;4.20;99.90;;;;;;5050181;28;20046;-79
2022/11/22 04:45:16;;;;;;;21.52;10.27;;;6.10;99.90;;;;;;5067749;28;20044;-81
2022/11/22 04:48:00;;;;;;;23.33;12.77;;;4.60;99.90;;;;;;5082989;28;20044;-79
2022/11/22 04:53:13;;;;;;;26.20;13.68;;;6.40;99.90;;;;;;5064611;28;20511;-80
2022/11/22 04:55:40;;;;;;;19.50;10.43;;;4.30;99.90;;;;;;5055275;28;20051;-79
2022/11/22 04:58:05;;;;;;;24.17;13.85;;;4.30;99.90;;;;;;5085245;28;20052;-78
2022/11/22 05:00:31;;;;;;;34.50;19.20;;;4.90;99.90;;;;;;5057837;28;20046;-79
2022/11/22 05:02:57;;;;;;;17.58;10.98;;;4.70;99.90;;;;;;5044407;28;20092;-79
2022/11/22 05:05:24;;;;;;;31.98;16.58;;;3.90;99.90;;;;;;5058339;28;20103;-79
2022/11/22 05:07:50;;;;;;;20.77;12.20;;;5.80;99.90;;;;;;5069014;28;20036;-80
2022/11/22 05:10:16;;;;;;;27.83;16.00;;;4.30;99.90;;;;;;5068140;28;20306;-78
2022/11/22 05:12:42;;;;;;;22.00;10.23;;;3.90;99.90;;;;;;5071325;28;20273;-80
2022/11/22 05:15:09;;;;;;;23.55;11.02;;;4.30;99.90;;;;;;5047297;28;20033;-78
2022/11/22 05:17:36;;;;;;;31.95;17.83;;;4.00;99.90;;;;;;5065866;28;20033;-76
2022/11/22 05:20:03;;;;;;;20.30;10.57;;;5.60;99.90;;;;;;5046629;28;20029;-77
2022/11/22 05:25:13;;;;;;;18.73;10.27;;;4.50;99.90;;;;;;5079484;28;20059;-78
2022/11/22 05:27:39;;;;;;;24.67;11.10;;;6.80;99.90;;;;;;5037283;28;20224;-80
2022/11/22 05:30:06;;;;;;;26.35;14.68;;;4.20;99.90;;;;;;5048966;28;20329;-80
2022/11/22 05:32:32;;;;;;;21.70;11.23;;;4.60;99.90;;;;;;5076217;28;20055;-81
2022/11/22 05:34:57;;;;;;;22.35;12.48;;;5.10;99.90;;;;;;5080345;28;20287;-77
2022/11/22 05:37:24;;;;;;;23.15;12.57;;;4.30;99.90;;;;;;5048056;28;20143;-80
2022/11/22 05:39:50;;;;;;;23.25;12.50;;;5.40;99.90;;;;;;5087542;28;20278;-76
2022/11/22 05:42:16;;;;;;;18.52;9.65;;;4.60;99.90;;;;;;5053454;28;20032;-79
2022/11/22 05:44:42;;;;;;;20.73;11.18;;;5.70;99.90;;;;;;5084245;28;20040;-78
2022/11/22 05:47:08;;;;;;;21.60;12.48;;;4.50;99.90;;;;;;5079554;28;20223;-77
2022/11/22 05:49:34;;;;;;;26.48;13.70;;;4.50;99.90;;;;;;5044944;28;20061;-77
2022/11/22 05:52:01;;;;;;;28.10;16.13;;;4.70;99.90;;;;;;5071948;28;20206;-77
2022/11/22 05:54:28;;;;;;;18.52;11.55;;;4.60;99.90;;;;;;5072039;28;20116;-80
2022/11/22 05:56:53;;;;;;;15.15;8.57;;;4.50;99.90;;;;;;5059928;28;20207;-82
2022/11/22 05:59:19;;;;;;;20.55;12.43;;;4.20;99.90;;;;;;5030292;28;20029;-79
2022/11/22 06:01:45;;;;;;;24.90;12.55;;;5.50;99.90;;;;;;5055336;28;20036;-80
2022/11/22 06:04:10;;;;;;;27.30;15.98;;;5.50;99.90;;;;;;5039293;28;20040;-81
2022/11/22 06:06:36;;;;;;;19.95;11.13;;;4.80;99.90;;;;;;5041264;28;20044;-79
2022/11/22 06:09:03;;;;;;;20.45;10.85;;;5.20;99.90;;;;;;5076742;28;20223;-81
2022/11/22 06:11:28;;;;;;;25.05;13.27;;;5.20;99.90;;;;;;5062915;28;20025;-77
2022/11/22 06:13:58;;;;;;;22.48;13.23;;;4.70;99.90;;;;;;5053435;28;20070;-79
2022/11/22 06:16:25;;;;;;;28.50;15.43;;;5.20;99.90;;;;;;5050992;28;20047;-79
2022/11/22 06:18:51;;;;;;;21.00;11.77;;;4.50;99.90;;;;;;5082514;28;20044;-77
2022/11/22 06:21:22;;;;;;;20.63;12.05;;;4.80;99.90;;;;;;5066329;28;20055;-79
2022/11/22 06:23:47;;;;;;;16.50;10.10;;;4.30;99.90;;;;;;5057166;28;20079;-77
2022/11/22 06:26:16;;;;;;;29.45;16.40;;;4.40;99.90;;;;;;5066262;28;20029;-76
2022/11/22 06:28:42;;;;;;;27.83;14.45;;;4.70;99.90;;;;;;5079534;28;20025;-76
2022/11/22 06:31:19;;;;;;;20.83;11.40;;;4.70;99.90;;;;;;5096409;28;20296;-76
2022/11/22 06:33:52;;;;;;;19.40;10.95;;;5.60;99.90;;;;;;5062900;28;20037;-76
2022/11/22 06:36:24;;;;;;;25.13;12.38;;;5.00;99.90;;;;;;5082902;28;20068;-75
2022/11/22 06:38:50;;;;;;;21.10;12.00;;;4.90;99.90;;;;;;5081391;28;20090;-76
2022/11/22 06:41:18;;;;;;;25.05;13.88;;;4.80;99.90;;;;;;5047261;28;20041;-78
2022/11/22 06:43:45;;;;;;;20.50;11.98;;;5.00;99.90;;;;;;5057192;28;20208;-76
2022/11/22 06:46:12;;;;;;;23.42;12.73;;;5.10;99.90;;;;;;5073234;28;20103;-77
2022/11/22 06:48:42;;;;;;;24.13;14.18;;;4.80;99.90;;;;;;5061363;28;20047;-77
2022/11/22 06:51:42;;;;;;;20.35;12.55;;;5.30;99.90;;;;;;5079581;28;20561;-79
2022/11/22 06:54:11;;;;;;;30.73;16.00;;;4.80;99.90;;;;;;5094487;28;20053;-78
2022/11/22 06:56:38;;;;;;;20.20;11.98;;;4.60;99.90;;;;;;5070522;28;20040;-77
2022/11/22 06:59:05;;;;;;;23.00;13.75;;;4.90;99.90;;;;;;5086415;28;20043;-78
2022/11/22 07:01:32;;;;;;;21.95;13.10;;;4.70;99.90;;;;;;5062661;28;20222;-80
2022/11/22 07:04:13;;;;;;;23.10;13.32;;;5.20;99.90;;;;;;5089227;28;20028;-79
2022/11/22 07:06:39;;;;;;;24.55;14.18;;;5.10;99.90;;;;;;5047500;28;20099;-77
2022/11/22 07:09:07;;;;;;;23.88;13.85;;;4.90;99.90;;;;;;5035375;28;20212;-77
2022/11/22 07:12:11;;;;;;;26.20;14.52;;;4.90;99.90;;;;;;5078816;28;20032;-76
2022/11/22 07:14:37;;;;;;;29.15;14.63;;;5.20;99.90;;;;;;5048798;28;20059;-78
2022/11/22 07:17:02;;;;;;;29.77;17.27;;;5.60;99.90;;;;;;5064863;28;20327;-79
2022/11/22 07:19:28;;;;;;;31.50;18.45;;;5.20;99.90;;;;;;5058045;28;20364;-78
2022/11/22 07:21:54;;;;;;;19.55;11.30;;;4.80;99.90;;;;;;5054428;28;20064;-71
2022/11/22 07:24:19;;;;;;;23.20;13.50;;;7.00;99.90;;;;;;5093730;28;20450;-78
2022/11/22 07:26:45;;;;;;;21.48;11.18;;;5.70;99.90;;;;;;5061278;28;20099;-77
2022/11/22 07:29:11;;;;;;;24.48;13.02;;;6.20;99.90;;;;;;5056405;28;20307;-77
2022/11/22 07:31:36;;;;;;;20.30;10.93;;;5.10;99.90;;;;;;5095304;28;20032;-77
2022/11/22 07:34:02;;;;;;;16.73;10.05;;;7.00;99.90;;;;;;5079686;28;20051;-78
2022/11/22 07:36:29;;;;;;;26.08;13.45;;;5.80;99.90;;;;;;5061464;28;20021;-78
2022/11/22 07:38:55;;;;;;;22.63;13.10;;;5.20;99.90;;;;;;5052323;28;20072;-77
2022/11/22 07:41:21;;;;;;;23.83;12.95;;;5.10;99.90;;;;;;5057855;28;20130;-79
2022/11/22 07:43:48;;;;;;;25.58;12.90;;;5.50;99.90;;;;;;5057341;28;20070;-76
2022/11/22 07:46:21;;;;;;;22.13;12.90;;;5.10;99.90;;;;;;5078539;28;20082;-75
2022/11/22 07:48:58;;;;;;;32.63;17.85;;;5.10;99.90;;;;;;5073612;28;20033;-75
2022/11/22 07:51:24;;;;;;;27.63;13.80;;;5.20;99.90;;;;;;5074642;28;20032;-78
2022/11/22 07:53:49;;;;;;;23.20;12.88;;;5.40;99.90;;;;;;5040616;28;20045;-76
2022/11/22 07:56:15;;;;;;;27.05;14.38;;;6.60;99.90;;;;;;5063448;28;20060;-78
2022/11/22 07:58:41;;;;;;;20.77;12.40;;;6.10;99.90;;;;;;5073191;28;20045;-77
2022/11/22 08:01:13;;;;;;;24.40;14.18;;;5.70;99.90;;;;;;5048053;28;20174;-82
2022/11/22 08:03:39;;;;;;;29.98;15.77;;;7.50;99.90;;;;;;5060625;28;20029;-81
2022/11/22 08:06:07;;;;;;;19.65;10.38;;;5.80;99.90;;;;;;5042756;28;20215;-80
2022/11/22 08:08:34;;;;;;;19.15;10.10;;;6.10;99.90;;;;;;5056754;28;20052;-82
2022/11/22 08:11:00;;;;;;;22.15;10.52;;;6.50;99.90;;;;;;5074419;28;20183;-82
2022/11/22 08:13:27;;;;;;;23.45;11.45;;;6.50;99.90;;;;;;5044651;28;20250;-81
2022/11/22 08:15:53;;;;;;;20.77;11.23;;;6.20;99.90;;;;;;5056385;28;20037;-82
2022/11/22 08:18:19;;;;;;;24.20;12.52;;;5.80;99.90;;;;;;5059891;28;20071;-81
2022/11/22 08:20:45;;;;;;;20.17;10.90;;;5.90;99.90;;;;;;5027129;28;20039;-82
2022/11/22 08:23:11;;;;;;;18.17;10.77;;;6.10;99.90;;;;;;5056742;28;20108;-81
2022/11/22 08:25:37;;;;;;;20.52;9.93;;;;;;;;;;5044716;28;20044;-82
2022/11/22 08:28:02;;;;;;;17.15;9.85;;;6.40;99.90;;;;;;5061372;28;20233;-80
2022/11/22 08:30:28;;;;;;;14.65;8.32;;;6.50;99.90;;;;;;5082538;28;20081;-79
2022/11/22 08:33:00;;;;;;;16.63;7.80;;;8.10;99.90;;;;;;5080365;28;20035;-85
2022/11/22 08:35:26;;;;;;;20.02;9.45;;;6.60;99.90;;;;;;5063344;28;20036;-78
2022/11/22 08:37:55;;;;;;;18.45;10.05;;;6.00;99.90;;;;;;5072926;28;20270;-77
2022/11/22 08:40:20;;;;;;;17.08;8.50;;;6.50;99.90;;;;;;5072708;28;20047;-79
2022/11/22 08:42:46;;;;;;;17.95;7.80;;;6.30;99.90;;;;;;5076415;28;20127;-79
2022/11/22 08:45:12;;;;;;;10.98;6.25;;;6.60;99.90;;;;;;5080868;28;20046;-79
2022/11/22 08:47:37;;;;;;;17.85;5.88;;;6.40;99.90;;;;;;5066575;28;20101;-78
2022/11/22 08:50:04;;;;;;;16.08;7.03;;;6.50;99.90;;;;;;5100627;28;20086;-81
2022/11/22 08:52:30;;;;;;;14.50;6.85;;;6.20;99.90;;;;;;5075851;28;20045;-78
2022/11/22 08:54:56;;;;;;;14.75;6.50;;;6.20;99.90;;;;;;5046846;28;20228;-79
2022/11/22 08:57:22;;;;;;;12.93;5.30;;;6.70;99.90;;;;;;5063823;28;20036;-78
2022/11/22 08:59:47;;;;;;;13.23;4.97;;;6.30;99.90;;;;;;5080192;28;20255;-78
2022/11/22 09:02:13;;;;;;;12.32;5.68;;;6.80;99.90;;;;;;5063783;28;20038;-81
2022/11/22 09:04:39;;;;;;;10.88;5.63;;;6.90;99.90;;;;;;5062529;28;20025;-78
2022/11/22 09:07:04;;;;;;;15.05;5.60;;;7.60;99.90;;;;;;5063610;28;20044;-79
2022/11/22 09:09:31;;;;;;;11.60;4.90;;;6.60;99.90;;;;;;5046176;28;20063;-78
2022/11/22 09:11:57;;;;;;;14.40;5.28;;;6.60;99.90;;;;;;5056191;28;20060;-78
2022/11/22 09:14:23;;;;;;;17.83;5.78;;;6.90;99.90;;;;;;5030559;28;20103;-78
2022/11/22 09:16:48;;;;;;;13.63;5.05;;;6.80;99.90;;;;;;5062921;28;20033;-79
2022/11/22 09:19:17;;;;;;;10.88;4.75;;;6.40;99.90;;;;;;5047763;28;20056;-79
2022/11/22 09:21:43;;;;;;;13.68;4.63;;;6.60;99.90;;;;;;5030305;28;20064;-76
2022/11/22 09:24:09;;;;;;;14.20;5.72;;;6.70;99.90;;;;;;5065589;28;20062;-80
2022/11/22 09:26:34;;;;;;;13.65;4.88;;;7.10;99.90;;;;;;5038838;28;20036;-80
2022/11/22 09:29:00;;;;;;;11.38;4.93;;;6.40;99.90;;;;;;5096590;28;20227;-80
2022/11/22 09:31:26;;;;;;;7.03;3.50;;;6.40;99.90;;;;;;5066799;28;20040;-78
2022/11/22 09:33:52;;;;;;;10.50;4.63;;;6.70;99.90;;;;;;5083088;28;20238;-80
2022/11/22 09:36:31;;;;;;;9.48;4.00;;;6.60;99.90;;;;;;5083439;28;20036;-81
2022/11/22 09:38:57;;;;;;;8.77;3.75;;;6.40;99.90;;;;;;5066033;28;20154;-79
2022/11/22 09:41:50;;;;;;;10.88;5.40;;;4.90;99.90;;;;;;5051823;28;20040;-81
2022/11/22 09:44:26;;;;;;;10.48;3.92;;;6.40;99.90;;;;;;5065674;28;20039;-81
2022/11/22 09:47:02;;;;;;;13.38;5.57;;;6.40;99.90;;;;;;5083280;28;20032;-79
2022/11/22 09:49:45;;;;;;;7.05;2.70;;;6.40;99.90;;;;;;5066550;28;20036;-75
2022/11/22 09:52:20;;;;;;;6.95;2.88;;;6.50;99.90;;;;;;5066981;28;20025;-78
2022/11/22 09:54:56;;;;;;;11.18;4.47;;;6.50;99.90;;;;;;5083025;28;20117;-78
2022/11/22 09:57:44;;;;;;;10.40;3.15;;;6.40;99.90;;;;;;5066716;28;20048;-77
2022/11/22 10:00:26;;;;;;;8.65;3.42;;;6.50;99.90;;;;;;5065902;28;20024;-81
2022/11/22 10:03:29;;;;;;;6.40;2.20;;;6.50;99.90;;;;;;5062292;28;20036;-77
2022/11/22 10:06:00;;;;;;;9.55;3.22;;;6.50;99.90;;;;;;5062530;28;20033;-75
2022/11/22 10:08:42;;;;;;;8.60;2.70;;;6.30;99.90;;;;;;5046374;28;20040;-78
2022/11/22 10:11:29;;;;;;;11.63;3.67;;;6.50;99.90;;;;;;5062814;28;20048;-77
2022/11/22 10:14:01;;;;;;;3.47;2.00;;;6.50;99.90;;;;;;5045788;28;20204;-79
2022/11/22 10:16:39;;;;;;;7.40;2.72;;;6.40;99.90;;;;;;5062614;28;20060;-79
2022/11/22 10:19:14;;;;;;;6.20;1.77;;;6.50;99.90;;;;;;5046925;28;20072;-81
2022/11/22 10:21:41;;;;;;;10.27;3.08;;;6.50;99.90;;;;;;5079092;28;20052;-75
2022/11/22 10:24:12;;;;;;;4.15;2.22;;;6.60;99.90;;;;;;5062611;28;20211;-81
2022/11/22 10:26:39;;;;;;;9.80;2.85;;;6.50;99.90;;;;;;5046019;28;20041;-76
2022/11/22 10:29:16;;;;;;;8.13;3.20;;;6.50;99.90;;;;;;5079387;28;20470;-78
2022/11/22 10:32:04;;;;;;;9.02;2.58;;;6.70;99.90;;;;;;5082225;28;20039;-79
2022/11/22 10:35:05;;;;;;;8.18;3.30;;;6.60;99.90;;;;;;5081917;28;20035;-79
2022/11/22 10:38:08;;;;;;;10.82;4.00;;;6.50;99.90;;;;;;5078425;28;20381;-80
2022/11/22 10:40:57;;;;;;;4.30;1.67;;;6.60;99.90;;;;;;5050193;28;20049;-79
2022/11/22 10:43:32;;;;;;;6.00;2.33;;;6.60;99.90;;;;;;5082188;28;20029;-78
2022/11/22 10:46:26;;;;;;;4.50;1.70;;;6.60;99.90;;;;;;5078548;28;20036;-76
2022/11/22 10:48:59;;;;;;;6.90;2.08;;;6.70;99.90;;;;;;5061413;28;20040;-79
2022/11/22 10:51:52;;;;;;;4.90;2.28;;;7.40;99.90;;;;;;5062108;28;20029;-76
2022/11/22 10:54:36;;;;;;;8.32;2.30;;;6.60;99.90;;;;;;5061392;28;20323;-77
2022/11/22 10:57:38;;;;;;;4.10;1.70;;;6.60;99.90;;;;;;5046229;28;20048;-78
2022/11/22 11:00:16;;;;;;;10.32;2.97;;;7.00;99.90;;;;;;5044841;28;20029;-77
2022/11/22 11:02:53;;;;;;;5.97;2.22;;;7.20;99.90;;;;;;5044924;28;20082;-76
2022/11/22 11:05:28;;;;;;;3.08;1.70;;;7.10;99.90;;;;;;5044611;28;20227;-78
2022/11/22 11:07:54;;;;;;;3.83;1.70;;;7.50;99.90;;;;;;5072318;28;20048;-79
2022/11/22 11:10:22;;;;;;;4.60;1.95;;;7.30;99.90;;;;;;5065308;28;20067;-78
2022/11/22 11:12:55;;;;;;;6.63;2.35;;;7.40;99.90;;;;;;5064588;28;20033;-79
2022/11/22 11:15:37;;;;;;;3.58;1.80;;;7.30;99.90;;;;;;5081586;28;20475;-77
2022/11/22 11:18:14;;;;;;;3.10;1.58;;;7.30;99.90;;;;;;5063757;28;20040;-75
2022/11/22 11:20:42;;;;;;;6.18;1.63;;;7.30;99.90;;;;;;5081756;28;20028;-76
2022/11/22 11:23:09;;;;;;;6.65;2.22;;;7.70;99.90;;;;;;5081225;28;20118;-77
2022/11/22 11:25:39;;;;;;;4.85;1.92;;;7.50;99.90;;;;;;5064623;28;20043;-81
2022/11/22 11:28:17;;;;;;;5.45;1.75;;;7.30;99.90;;;;;;5074461;28;20040;-79
2022/11/22 11:30:49;;;;;;;6.47;2.13;;;8.00;99.90;;;;;;5058395;28;20107;-80
2022/11/22 11:33:34;;;;;;;5.18;1.40;;;7.30;99.90;;;;;;5083120;28;20099;-76
2022/11/22 11:36:14;;;;;;;5.75;1.85;;;7.20;99.90;;;;;;5083666;28;20333;-78
2022/11/22 11:39:04;;;;;;;8.68;1.83;;;7.20;99.90;;;;;;5080786;28;20343;-81
2022/11/22 11:41:32;;;;;;;3.03;1.10;;;7.20;99.90;;;;;;5080718;28;20111;-76
2022/11/22 11:44:00;;;;;;;8.25;2.13;;;7.20;99.90;;;;;;5063905;28;20258;-81
2022/11/22 11:46:28;;;;;;;4.57;1.90;;;7.20;99.90;;;;;;5063586;28;20037;-77
2022/11/22 11:49:07;;;;;;;4.55;2.30;;;7.20;99.90;;;;;;5055879;28;20041;-80
2022/11/22 11:51:41;;;;;;;5.45;1.67;;;7.50;99.90;;;;;;5060901;28;20155;-80
2022/11/22 11:54:29;;;;;;;6.10;1.88;;;7.10;99.90;;;;;;5043498;28;20145;-76
2022/11/22 11:56:59;;;;;;;3.97;1.27;;;7.20;99.90;;;;;;5060620;28;20418;-79
2022/11/22 11:59:46;;;;;;;6.30;1.83;;;7.20;99.90;;;;;;5044430;28;20028;-77
2022/11/22 12:02:37;;;;;;;9.68;3.05;;;7.20;99.90;;;;;;5060568;28;20063;-80
2022/11/22 12:05:12;;;;;;;5.88;1.70;;;7.30;99.90;;;;;;5094133;28;20052;-79
2022/11/22 12:07:43;;;;;;;5.63;1.48;;;7.30;99.90;;;;;;5059946;28;20041;-79
2022/11/22 12:10:28;;;;;;;7.45;1.70;;;7.30;99.90;;;;;;5071131;28;20040;-78
2022/11/22 12:13:26;;;;;;;9.77;1.83;;;7.30;99.90;;;;;;5080020;28;20070;-81
2022/11/22 12:16:10;;;;;;;3.78;1.83;;;7.30;99.90;;;;;;5043989;28;20104;-79
2022/11/22 12:19:03;;;;;;;8.63;2.10;;;7.40;99.90;;;;;;5060381;28;20051;-78
2022/11/22 12:22:06;;;;;;;7.55;2.30;;;9.00;99.90;;;;;;5062932;28;20289;-77
2022/11/22 12:24:42;;;;;;;3.45;1.70;;;7.40;99.90;;;;;;5053033;28;20083;-81
2022/11/22 12:27:11;;;;;;;6.07;1.58;;;7.40;99.90;;;;;;5080320;28;20122;-79
2022/11/22 12:29:40;;;;;;;5.13;1.70;;;7.40;99.90;;;;;;5063130;28;20118;-78
2022/11/22 12:32:38;;;;;;;4.03;1.40;;;7.50;99.90;;;;;;5059605;28;20033;-80
2022/11/22 12:35:15;;;;;;;3.85;1.58;;;7.50;99.90;;;;;;5093842;28;20116;-79
2022/11/22 12:37:45;;;;;;;6.50;1.60;;;8.40;99.90;;;;;;5093787;28;20041;-77
2022/11/22 12:40:23;;;;;;;7.20;2.63;;;7.50;99.90;;;;;;5044879;28;20029;-79
2022/11/22 12:43:06;;;;;;;4.10;1.75;;;7.50;99.90;;;;;;5079721;28;20310;-82
2022/11/22 12:45:39;;;;;;;3.33;1.80;;;5.90;99.90;;;;;;5080531;28;20047;-79
2022/11/22 12:48:39;;;;;;;3.63;1.40;;;7.50;99.90;;;;;;5080279;28;20055;-78
2022/11/22 12:51:18;;;;;;;4.78;1.98;;;7.50;99.90;;;;;;5062422;28;20037;-77
2022/11/22 12:53:46;;;;;;;6.10;1.40;;;7.50;99.90;;;;;;5063699;28;20167;-78
2022/11/22 12:56:15;;;;;;;7.05;1.73;;;7.50;99.90;;;;;;5063637;28;20138;-81
2022/11/22 12:59:05;;;;;;;7.50;1.85;;;7.50;99.90;;;;;;5067306;28;20040;-80
2022/11/22 13:01:41;;;;;;;3.65;1.77;;;7.50;99.90;;;;;;5080289;28;20343;-79
2022/11/22 13:04:09;;;;;;;5.68;2.03;;;7.50;99.90;;;;;;5098190;28;20040;-80
2022/11/22 13:06:50;;;;;;;4.78;1.70;;;7.60;99.90;;;;;;5107734;28;20313;-84
2022/11/22 13:09:40;;;;;;;3.13;1.58;;;7.60;99.90;;;;;;5067263;28;20212;-80
2022/11/22 13:12:12;;;;;;;5.03;1.40;;;7.60;99.90;;;;;;5082941;28;20047;-79
2022/11/22 13:14:43;;;;;;;7.03;1.92;;;7.60;99.90;;;;;;5084254;28;20028;-82